sensor_id;sensor_type;location;lat;lon;timestamp;P1;durP1;ratioP1;P2;durP2;ratioP2
47429;SDS011;33181;49.246;7.372;2023-05-27T00:00:20;17.17;;;5.50;;
47429;SDS011;33181;49.246;7.372;2023-05-27T00:02:47;10.23;;;4.80;;
47429;SDS011;33181;49.246;7.372;2023-05-27T00:05:13;13.67;;;4.70;;
47429;SDS011;33181;49.246;7.372;2023-05-27T00:07:39;12.30;;;4.67;;
47429;SDS011;33181;49.246;7.372;2023-05-27T00:10:06;14.57;;;5.23;;
47429;SDS011;33181;49.246;7.372;2023-05-27T00:12:35;10.13;;;4.60;;
47429;SDS011;33181;49.246;7.372;2023-05-27T00:15:01;12.57;;;4.80;;
47429;SDS011;33181;49.246;7.372;2023-05-27T00:17:30;16.17;;;4.53;;
47429;SDS011;33181;49.246;7.372;2023-05-27T00:19:56;11.57;;;4.63;;
47429;SDS011;33181;49.246;7.372;2023-05-27T00:22:27;13.73;;;5.10;;
47429;SDS011;33181;49.246;7.372;2023-05-27T00:24:54;12.27;;;4.90;;
47429;SDS011;33181;49.246;7.372;2023-05-27T00:27:21;15.60;;;4.87;;
47429;SDS011;33181;49.246;7.372;2023-05-27T00:29:47;15.00;;;4.60;;
47429;SDS011;33181;49.246;7.372;2023-05-27T00:32:14;9.13;;;4.27;;
47429;SDS011;33181;49.246;7.372;2023-05-27T00:34:40;13.03;;;5.07;;
47429;SDS011;33181;49.246;7.372;2023-05-27T00:37:06;10.00;;;4.13;;
47429;SDS011;33181;49.246;7.372;2023-05-27T00:39:33;10.93;;;4.03;;
47429;SDS011;33181;49.246;7.372;2023-05-27T00:42:02;12.47;;;4.40;;
47429;SDS011;33181;49.246;7.372;2023-05-27T00:44:30;14.20;;;4.70;;
47429;SDS011;33181;49.246;7.372;2023-05-27T00:46:58;12.07;;;4.50;;
47429;SDS011;33181;49.246;7.372;2023-05-27T00:49:25;12.60;;;4.50;;
47429;SDS011;33181;49.246;7.372;2023-05-27T00:51:52;12.93;;;4.70;;
47429;SDS011;33181;49.246;7.372;2023-05-27T00:54:18;11.57;;;5.20;;
47429;SDS011;33181;49.246;7.372;2023-05-27T00:56:45;12.37;;;4.90;;
47429;SDS011;33181;49.246;7.372;2023-05-27T00:59:13;13.80;;;5.00;;
47429;SDS011;33181;49.246;7.372;2023-05-27T01:01:40;9.53;;;4.43;;
47429;SDS011;33181;49.246;7.372;2023-05-27T01:04:08;10.47;;;4.27;;
47429;SDS011;33181;49.246;7.372;2023-05-27T01:09:45;19.53;;;4.97;;
47429;SDS011;33181;49.246;7.372;2023-05-27T01:12:35;8.57;;;4.23;;
47429;SDS011;33181;49.246;7.372;2023-05-27T01:15:19;13.70;;;4.60;;
47429;SDS011;33181;49.246;7.372;2023-05-27T01:17:48;12.87;;;4.60;;
47429;SDS011;33181;49.246;7.372;2023-05-27T01:20:21;12.00;;;4.33;;
47429;SDS011;33181;49.246;7.372;2023-05-27T01:22:49;10.30;;;4.60;;
47429;SDS011;33181;49.246;7.372;2023-05-27T01:25:17;14.80;;;4.97;;
47429;SDS011;33181;49.246;7.372;2023-05-27T01:27:46;11.93;;;4.27;;
47429;SDS011;33181;49.246;7.372;2023-05-27T01:30:24;16.30;;;5.17;;
47429;SDS011;33181;49.246;7.372;2023-05-27T01:35:53;14.37;;;4.77;;
47429;SDS011;33181;49.246;7.372;2023-05-27T01:38:26;14.03;;;4.57;;
47429;SDS011;33181;49.246;7.372;2023-05-27T01:40:56;10.27;;;4.27;;
47429;SDS011;33181;49.246;7.372;2023-05-27T01:43:23;12.40;;;4.30;;
47429;SDS011;33181;49.246;7.372;2023-05-27T01:45:49;11.07;;;4.63;;
47429;SDS011;33181;49.246;7.372;2023-05-27T01:48:17;11.03;;;3.90;;
47429;SDS011;33181;49.246;7.372;2023-05-27T01:50:44;15.70;;;4.60;;
47429;SDS011;33181;49.246;7.372;2023-05-27T01:53:11;9.40;;;4.00;;
47429;SDS011;33181;49.246;7.372;2023-05-27T01:55:40;10.70;;;4.70;;
47429;SDS011;33181;49.246;7.372;2023-05-27T01:58:07;9.47;;;4.00;;
47429;SDS011;33181;49.246;7.372;2023-05-27T02:00:33;10.60;;;4.40;;
47429;SDS011;33181;49.246;7.372;2023-05-27T02:02:59;15.07;;;4.93;;
47429;SDS011;33181;49.246;7.372;2023-05-27T02:05:25;12.50;;;4.07;;
47429;SDS011;33181;49.246;7.372;2023-05-27T02:07:51;14.17;;;5.30;;
47429;SDS011;33181;49.246;7.372;2023-05-27T02:10:17;11.27;;;4.47;;
47429;SDS011;33181;49.246;7.372;2023-05-27T02:12:43;12.33;;;4.70;;
47429;SDS011;33181;49.246;7.372;2023-05-27T02:15:23;13.00;;;4.63;;
47429;SDS011;33181;49.246;7.372;2023-05-27T02:17:49;12.13;;;5.10;;
47429;SDS011;33181;49.246;7.372;2023-05-27T02:20:23;13.07;;;4.20;;
47429;SDS011;33181;49.246;7.372;2023-05-27T02:22:50;11.40;;;4.60;;
47429;SDS011;33181;49.246;7.372;2023-05-27T02:25:16;12.97;;;4.90;;
47429;SDS011;33181;49.246;7.372;2023-05-27T02:27:43;11.17;;;4.20;;
47429;SDS011;33181;49.246;7.372;2023-05-27T02:30:13;12.97;;;4.43;;
47429;SDS011;33181;49.246;7.372;2023-05-27T02:32:41;10.10;;;4.30;;
47429;SDS011;33181;49.246;7.372;2023-05-27T02:35:08;11.13;;;4.27;;
47429;SDS011;33181;49.246;7.372;2023-05-27T02:37:40;10.27;;;4.10;;
47429;SDS011;33181;49.246;7.372;2023-05-27T02:40:06;12.63;;;4.87;;
47429;SDS011;33181;49.246;7.372;2023-05-27T02:42:34;11.90;;;4.40;;
47429;SDS011;33181;49.246;7.372;2023-05-27T02:45:00;14.33;;;5.07;;
47429;SDS011;33181;49.246;7.372;2023-05-27T02:47:26;12.27;;;4.70;;
47429;SDS011;33181;49.246;7.372;2023-05-27T02:49:52;12.53;;;4.27;;
47429;SDS011;33181;49.246;7.372;2023-05-27T02:52:19;13.93;;;4.67;;
47429;SDS011;33181;49.246;7.372;2023-05-27T02:54:45;13.23;;;4.60;;
47429;SDS011;33181;49.246;7.372;2023-05-27T02:57:11;11.50;;;4.93;;
47429;SDS011;33181;49.246;7.372;2023-05-27T02:59:37;11.00;;;4.50;;
47429;SDS011;33181;49.246;7.372;2023-05-27T03:02:03;12.77;;;5.00;;
47429;SDS011;33181;49.246;7.372;2023-05-27T03:04:29;16.77;;;5.43;;
47429;SDS011;33181;49.246;7.372;2023-05-27T03:06:58;11.57;;;4.87;;
47429;SDS011;33181;49.246;7.372;2023-05-27T03:09:24;11.00;;;4.57;;
47429;SDS011;33181;49.246;7.372;2023-05-27T03:11:50;11.50;;;4.73;;
47429;SDS011;33181;49.246;7.372;2023-05-27T03:14:15;9.47;;;4.47;;
47429;SDS011;33181;49.246;7.372;2023-05-27T03:16:41;14.83;;;4.70;;
47429;SDS011;33181;49.246;7.372;2023-05-27T03:19:07;10.87;;;4.30;;
47429;SDS011;33181;49.246;7.372;2023-05-27T03:21:33;13.50;;;4.53;;
47429;SDS011;33181;49.246;7.372;2023-05-27T03:24:01;12.23;;;4.70;;
47429;SDS011;33181;49.246;7.372;2023-05-27T03:26:27;14.10;;;4.40;;
47429;SDS011;33181;49.246;7.372;2023-05-27T03:28:53;8.43;;;4.10;;
47429;SDS011;33181;49.246;7.372;2023-05-27T03:31:19;12.50;;;4.70;;
47429;SDS011;33181;49.246;7.372;2023-05-27T03:33:45;13.17;;;4.67;;
47429;SDS011;33181;49.246;7.372;2023-05-27T03:36:10;11.47;;;4.40;;
47429;SDS011;33181;49.246;7.372;2023-05-27T03:38:36;12.67;;;4.20;;
47429;SDS011;33181;49.246;7.372;2023-05-27T03:41:02;12.57;;;5.20;;
47429;SDS011;33181;49.246;7.372;2023-05-27T03:43:28;13.37;;;4.77;;
47429;SDS011;33181;49.246;7.372;2023-05-27T03:45:54;11.27;;;4.30;;
47429;SDS011;33181;49.246;7.372;2023-05-27T03:48:20;13.33;;;4.40;;
47429;SDS011;33181;49.246;7.372;2023-05-27T03:50:47;10.50;;;4.50;;
47429;SDS011;33181;49.246;7.372;2023-05-27T03:53:13;16.40;;;5.10;;
47429;SDS011;33181;49.246;7.372;2023-05-27T03:55:38;12.63;;;5.07;;
47429;SDS011;33181;49.246;7.372;2023-05-27T03:58:04;12.03;;;4.90;;
47429;SDS011;33181;49.246;7.372;2023-05-27T04:00:30;10.67;;;4.57;;
47429;SDS011;33181;49.246;7.372;2023-05-27T04:02:56;14.03;;;4.80;;
47429;SDS011;33181;49.246;7.372;2023-05-27T04:05:22;11.20;;;5.10;;
47429;SDS011;33181;49.246;7.372;2023-05-27T04:07:48;13.30;;;4.83;;
47429;SDS011;33181;49.246;7.372;2023-05-27T04:10:14;11.17;;;4.93;;
47429;SDS011;33181;49.246;7.372;2023-05-27T04:12:40;23.97;;;5.20;;
47429;SDS011;33181;49.246;7.372;2023-05-27T04:15:07;10.17;;;4.33;;
47429;SDS011;33181;49.246;7.372;2023-05-27T04:17:34;16.13;;;5.37;;
47429;SDS011;33181;49.246;7.372;2023-05-27T04:20:01;12.70;;;4.80;;
47429;SDS011;33181;49.246;7.372;2023-05-27T04:22:38;15.70;;;5.43;;
47429;SDS011;33181;49.246;7.372;2023-05-27T04:25:07;10.23;;;4.70;;
47429;SDS011;33181;49.246;7.372;2023-05-27T04:27:34;13.40;;;4.90;;
47429;SDS011;33181;49.246;7.372;2023-05-27T04:30:03;15.33;;;4.43;;
47429;SDS011;33181;49.246;7.372;2023-05-27T04:32:31;10.90;;;4.47;;
47429;SDS011;33181;49.246;7.372;2023-05-27T04:35:04;14.57;;;4.73;;
47429;SDS011;33181;49.246;7.372;2023-05-27T04:37:34;11.83;;;5.00;;
47429;SDS011;33181;49.246;7.372;2023-05-27T04:40:04;8.87;;;4.50;;
47429;SDS011;33181;49.246;7.372;2023-05-27T04:42:32;17.37;;;5.07;;
47429;SDS011;33181;49.246;7.372;2023-05-27T04:45:02;12.83;;;4.57;;
47429;SDS011;33181;49.246;7.372;2023-05-27T04:47:28;8.73;;;5.00;;
47429;SDS011;33181;49.246;7.372;2023-05-27T04:49:55;8.90;;;4.60;;
47429;SDS011;33181;49.246;7.372;2023-05-27T04:52:22;12.90;;;4.90;;
47429;SDS011;33181;49.246;7.372;2023-05-27T04:54:48;12.57;;;4.30;;
47429;SDS011;33181;49.246;7.372;2023-05-27T04:57:15;15.10;;;4.13;;
47429;SDS011;33181;49.246;7.372;2023-05-27T04:59:43;11.70;;;4.50;;
47429;SDS011;33181;49.246;7.372;2023-05-27T05:02:34;14.40;;;5.10;;
47429;SDS011;33181;49.246;7.372;2023-05-27T05:05:00;11.77;;;4.73;;
47429;SDS011;33181;49.246;7.372;2023-05-27T05:07:28;17.67;;;4.47;;
47429;SDS011;33181;49.246;7.372;2023-05-27T05:09:55;9.93;;;4.53;;
47429;SDS011;33181;49.246;7.372;2023-05-27T05:12:22;15.17;;;4.67;;
47429;SDS011;33181;49.246;7.372;2023-05-27T05:14:50;11.13;;;4.40;;
47429;SDS011;33181;49.246;7.372;2023-05-27T05:17:16;14.20;;;4.90;;
47429;SDS011;33181;49.246;7.372;2023-05-27T05:19:43;10.10;;;4.27;;
47429;SDS011;33181;49.246;7.372;2023-05-27T05:22:10;13.53;;;5.10;;
47429;SDS011;33181;49.246;7.372;2023-05-27T05:24:39;10.93;;;4.37;;
47429;SDS011;33181;49.246;7.372;2023-05-27T05:27:05;13.07;;;4.77;;
47429;SDS011;33181;49.246;7.372;2023-05-27T05:29:32;12.70;;;4.67;;
47429;SDS011;33181;49.246;7.372;2023-05-27T05:31:58;9.83;;;4.33;;
47429;SDS011;33181;49.246;7.372;2023-05-27T05:34:23;12.90;;;5.00;;
47429;SDS011;33181;49.246;7.372;2023-05-27T05:36:49;9.40;;;4.27;;
47429;SDS011;33181;49.246;7.372;2023-05-27T05:39:15;14.10;;;4.83;;
47429;SDS011;33181;49.246;7.372;2023-05-27T05:41:41;10.80;;;4.70;;
47429;SDS011;33181;49.246;7.372;2023-05-27T05:44:07;11.13;;;4.40;;
47429;SDS011;33181;49.246;7.372;2023-05-27T05:46:33;11.37;;;4.50;;
47429;SDS011;33181;49.246;7.372;2023-05-27T05:48:59;12.80;;;4.40;;
47429;SDS011;33181;49.246;7.372;2023-05-27T05:51:25;10.87;;;4.70;;
47429;SDS011;33181;49.246;7.372;2023-05-27T05:53:52;10.93;;;4.43;;
47429;SDS011;33181;49.246;7.372;2023-05-27T05:56:56;15.60;;;4.50;;
47429;SDS011;33181;49.246;7.372;2023-05-27T05:59:22;10.47;;;4.80;;
47429;SDS011;33181;49.246;7.372;2023-05-27T06:01:48;10.10;;;4.50;;
47429;SDS011;33181;49.246;7.372;2023-05-27T06:04:14;9.80;;;4.40;;
47429;SDS011;33181;49.246;7.372;2023-05-27T06:06:40;11.03;;;4.60;;
47429;SDS011;33181;49.246;7.372;2023-05-27T06:09:07;12.57;;;4.57;;
47429;SDS011;33181;49.246;7.372;2023-05-27T06:11:33;18.17;;;5.20;;
47429;SDS011;33181;49.246;7.372;2023-05-27T06:13:59;7.53;;;4.37;;
47429;SDS011;33181;49.246;7.372;2023-05-27T06:16:28;10.10;;;4.73;;
47429;SDS011;33181;49.246;7.372;2023-05-27T06:18:53;12.10;;;4.40;;
47429;SDS011;33181;49.246;7.372;2023-05-27T06:21:20;11.43;;;5.17;;
47429;SDS011;33181;49.246;7.372;2023-05-27T06:23:46;9.73;;;4.57;;
47429;SDS011;33181;49.246;7.372;2023-05-27T06:26:12;15.93;;;4.23;;
47429;SDS011;33181;49.246;7.372;2023-05-27T06:28:39;12.23;;;4.47;;
47429;SDS011;33181;49.246;7.372;2023-05-27T06:31:05;12.60;;;4.30;;
47429;SDS011;33181;49.246;7.372;2023-05-27T06:33:31;13.33;;;4.60;;
47429;SDS011;33181;49.246;7.372;2023-05-27T06:35:57;10.50;;;4.30;;
47429;SDS011;33181;49.246;7.372;2023-05-27T06:38:23;16.00;;;5.20;;
47429;SDS011;33181;49.246;7.372;2023-05-27T06:40:49;9.83;;;4.50;;
47429;SDS011;33181;49.246;7.372;2023-05-27T06:43:16;8.53;;;4.40;;
47429;SDS011;33181;49.246;7.372;2023-05-27T06:45:42;8.50;;;4.03;;
47429;SDS011;33181;49.246;7.372;2023-05-27T06:48:08;11.93;;;4.60;;
47429;SDS011;33181;49.246;7.372;2023-05-27T06:50:34;19.50;;;5.20;;
47429;SDS011;33181;49.246;7.372;2023-05-27T06:53:00;21.13;;;5.03;;
47429;SDS011;33181;49.246;7.372;2023-05-27T06:55:26;11.43;;;4.97;;
47429;SDS011;33181;49.246;7.372;2023-05-27T06:57:52;8.93;;;4.30;;
47429;SDS011;33181;49.246;7.372;2023-05-27T07:00:19;13.73;;;5.07;;
47429;SDS011;33181;49.246;7.372;2023-05-27T07:02:46;12.27;;;4.53;;
47429;SDS011;33181;49.246;7.372;2023-05-27T07:05:12;10.67;;;4.80;;
47429;SDS011;33181;49.246;7.372;2023-05-27T07:07:38;12.20;;;4.43;;
47429;SDS011;33181;49.246;7.372;2023-05-27T07:10:05;14.43;;;4.77;;
47429;SDS011;33181;49.246;7.372;2023-05-27T07:12:32;15.40;;;4.80;;
47429;SDS011;33181;49.246;7.372;2023-05-27T07:14:58;14.70;;;4.80;;
47429;SDS011;33181;49.246;7.372;2023-05-27T07:17:24;9.73;;;4.30;;
47429;SDS011;33181;49.246;7.372;2023-05-27T07:20:19;11.03;;;4.60;;
47429;SDS011;33181;49.246;7.372;2023-05-27T07:23:35;16.10;;;4.83;;
47429;SDS011;33181;49.246;7.372;2023-05-27T07:26:09;12.20;;;4.93;;
47429;SDS011;33181;49.246;7.372;2023-05-27T07:28:36;7.03;;;4.17;;
47429;SDS011;33181;49.246;7.372;2023-05-27T07:31:02;11.20;;;4.33;;
47429;SDS011;33181;49.246;7.372;2023-05-27T07:33:32;11.40;;;4.80;;
47429;SDS011;33181;49.246;7.372;2023-05-27T07:35:58;10.77;;;5.00;;
47429;SDS011;33181;49.246;7.372;2023-05-27T07:38:24;10.17;;;4.50;;
47429;SDS011;33181;49.246;7.372;2023-05-27T07:40:50;11.13;;;4.67;;
47429;SDS011;33181;49.246;7.372;2023-05-27T07:43:26;11.00;;;4.27;;
47429;SDS011;33181;49.246;7.372;2023-05-27T07:46:22;11.20;;;4.70;;
47429;SDS011;33181;49.246;7.372;2023-05-27T07:48:50;13.47;;;4.90;;
47429;SDS011;33181;49.246;7.372;2023-05-27T07:51:16;9.97;;;4.60;;
47429;SDS011;33181;49.246;7.372;2023-05-27T07:53:42;11.77;;;4.73;;
47429;SDS011;33181;49.246;7.372;2023-05-27T07:56:08;15.10;;;4.87;;
47429;SDS011;33181;49.246;7.372;2023-05-27T07:58:34;9.00;;;4.43;;
47429;SDS011;33181;49.246;7.372;2023-05-27T08:01:00;12.17;;;4.80;;
47429;SDS011;33181;49.246;7.372;2023-05-27T08:03:26;10.30;;;4.63;;
47429;SDS011;33181;49.246;7.372;2023-05-27T08:05:52;11.67;;;5.00;;
47429;SDS011;33181;49.246;7.372;2023-05-27T08:08:20;11.73;;;4.50;;
47429;SDS011;33181;49.246;7.372;2023-05-27T08:10:55;12.87;;;5.40;;
47429;SDS011;33181;49.246;7.372;2023-05-27T08:13:23;12.80;;;5.20;;
47429;SDS011;33181;49.246;7.372;2023-05-27T08:15:50;9.80;;;4.27;;
47429;SDS011;33181;49.246;7.372;2023-05-27T08:18:17;7.40;;;4.47;;
47429;SDS011;33181;49.246;7.372;2023-05-27T08:20:43;11.03;;;4.33;;
47429;SDS011;33181;49.246;7.372;2023-05-27T08:23:12;13.10;;;5.60;;
47429;SDS011;33181;49.246;7.372;2023-05-27T08:25:39;10.63;;;4.67;;
47429;SDS011;33181;49.246;7.372;2023-05-27T08:28:11;11.60;;;4.40;;
47429;SDS011;33181;49.246;7.372;2023-05-27T08:30:37;10.40;;;4.40;;
47429;SDS011;33181;49.246;7.372;2023-05-27T08:33:03;10.07;;;4.63;;
47429;SDS011;33181;49.246;7.372;2023-05-27T08:35:33;11.37;;;4.40;;
47429;SDS011;33181;49.246;7.372;2023-05-27T08:38:00;11.53;;;5.50;;
47429;SDS011;33181;49.246;7.372;2023-05-27T08:40:27;12.73;;;5.33;;
47429;SDS011;33181;49.246;7.372;2023-05-27T08:42:54;11.97;;;4.77;;
47429;SDS011;33181;49.246;7.372;2023-05-27T08:45:23;10.30;;;4.83;;
47429;SDS011;33181;49.246;7.372;2023-05-27T08:47:49;7.70;;;4.33;;
47429;SDS011;33181;49.246;7.372;2023-05-27T08:50:18;11.30;;;4.80;;
47429;SDS011;33181;49.246;7.372;2023-05-27T08:52:47;13.03;;;5.50;;
47429;SDS011;33181;49.246;7.372;2023-05-27T08:55:19;16.30;;;4.80;;
47429;SDS011;33181;49.246;7.372;2023-05-27T09:00:48;13.53;;;5.47;;
47429;SDS011;33181;49.246;7.372;2023-05-27T09:03:14;9.27;;;4.80;;
47429;SDS011;33181;49.246;7.372;2023-05-27T09:05:41;11.23;;;5.17;;
47429;SDS011;33181;49.246;7.372;2023-05-27T09:08:07;16.30;;;5.47;;
47429;SDS011;33181;49.246;7.372;2023-05-27T09:10:34;10.80;;;5.07;;
47429;SDS011;33181;49.246;7.372;2023-05-27T09:13:11;12.43;;;4.73;;
47429;SDS011;33181;49.246;7.372;2023-05-27T09:15:36;11.33;;;5.23;;
47429;SDS011;33181;49.246;7.372;2023-05-27T09:18:03;11.93;;;5.43;;
47429;SDS011;33181;49.246;7.372;2023-05-27T09:20:30;8.70;;;4.67;;
47429;SDS011;33181;49.246;7.372;2023-05-27T09:22:56;9.10;;;4.77;;
47429;SDS011;33181;49.246;7.372;2023-05-27T09:25:25;10.47;;;5.30;;
47429;SDS011;33181;49.246;7.372;2023-05-27T09:27:59;10.60;;;4.80;;
47429;SDS011;33181;49.246;7.372;2023-05-27T09:30:30;11.70;;;5.23;;
47429;SDS011;33181;49.246;7.372;2023-05-27T09:33:00;13.90;;;5.50;;
47429;SDS011;33181;49.246;7.372;2023-05-27T09:35:28;12.50;;;5.30;;
47429;SDS011;33181;49.246;7.372;2023-05-27T09:37:54;11.53;;;5.57;;
47429;SDS011;33181;49.246;7.372;2023-05-27T09:40:37;13.90;;;5.60;;
47429;SDS011;33181;49.246;7.372;2023-05-27T09:43:14;11.67;;;4.93;;
47429;SDS011;33181;49.246;7.372;2023-05-27T09:45:43;10.70;;;4.80;;
47429;SDS011;33181;49.246;7.372;2023-05-27T09:48:13;13.63;;;4.60;;
47429;SDS011;33181;49.246;7.372;2023-05-27T09:50:43;10.97;;;5.00;;
47429;SDS011;33181;49.246;7.372;2023-05-27T09:53:11;11.50;;;4.73;;
47429;SDS011;33181;49.246;7.372;2023-05-27T09:55:45;8.77;;;4.90;;
47429;SDS011;33181;49.246;7.372;2023-05-27T09:58:13;10.33;;;5.20;;
47429;SDS011;33181;49.246;7.372;2023-05-27T10:00:41;10.73;;;5.37;;
47429;SDS011;33181;49.246;7.372;2023-05-27T10:03:22;9.97;;;4.77;;
47429;SDS011;33181;49.246;7.372;2023-05-27T10:06:05;15.10;;;5.40;;
47429;SDS011;33181;49.246;7.372;2023-05-27T10:08:34;10.97;;;5.03;;
47429;SDS011;33181;49.246;7.372;2023-05-27T10:11:00;10.40;;;4.90;;
47429;SDS011;33181;49.246;7.372;2023-05-27T10:13:27;11.63;;;5.50;;
47429;SDS011;33181;49.246;7.372;2023-05-27T10:15:56;9.17;;;5.27;;
47429;SDS011;33181;49.246;7.372;2023-05-27T10:18:25;9.33;;;4.80;;
47429;SDS011;33181;49.246;7.372;2023-05-27T10:20:56;12.90;;;5.70;;
47429;SDS011;33181;49.246;7.372;2023-05-27T10:23:27;9.40;;;5.07;;
47429;SDS011;33181;49.246;7.372;2023-05-27T10:26:07;10.97;;;5.87;;
47429;SDS011;33181;49.246;7.372;2023-05-27T10:28:34;12.70;;;5.90;;
47429;SDS011;33181;49.246;7.372;2023-05-27T10:33:36;12.30;;;5.93;;
47429;SDS011;33181;49.246;7.372;2023-05-27T10:36:06;14.27;;;5.27;;
47429;SDS011;33181;49.246;7.372;2023-05-27T10:38:38;11.03;;;5.17;;
47429;SDS011;33181;49.246;7.372;2023-05-27T10:41:07;10.87;;;5.20;;
47429;SDS011;33181;49.246;7.372;2023-05-27T10:43:33;11.40;;;5.53;;
47429;SDS011;33181;49.246;7.372;2023-05-27T10:48:32;9.47;;;5.33;;
47429;SDS011;33181;49.246;7.372;2023-05-27T10:51:02;15.50;;;6.23;;
47429;SDS011;33181;49.246;7.372;2023-05-27T10:53:29;11.63;;;6.00;;
47429;SDS011;33181;49.246;7.372;2023-05-27T10:55:57;16.60;;;6.60;;
47429;SDS011;33181;49.246;7.372;2023-05-27T10:58:24;14.57;;;5.67;;
47429;SDS011;33181;49.246;7.372;2023-05-27T11:00:52;11.93;;;6.00;;
47429;SDS011;33181;49.246;7.372;2023-05-27T11:03:24;11.97;;;5.87;;
47429;SDS011;33181;49.246;7.372;2023-05-27T11:08:30;10.70;;;6.00;;
47429;SDS011;33181;49.246;7.372;2023-05-27T11:10:58;13.00;;;6.17;;
47429;SDS011;33181;49.246;7.372;2023-05-27T11:13:34;11.33;;;6.00;;
47429;SDS011;33181;49.246;7.372;2023-05-27T11:16:05;13.63;;;5.90;;
47429;SDS011;33181;49.246;7.372;2023-05-27T11:18:35;11.37;;;6.40;;
47429;SDS011;33181;49.246;7.372;2023-05-27T11:21:06;11.57;;;5.63;;
47429;SDS011;33181;49.246;7.372;2023-05-27T11:23:37;11.67;;;5.73;;
47429;SDS011;33181;49.246;7.372;2023-05-27T11:28:53;10.97;;;6.03;;
47429;SDS011;33181;49.246;7.372;2023-05-27T11:31:29;12.53;;;6.70;;
47429;SDS011;33181;49.246;7.372;2023-05-27T11:33:56;11.20;;;6.40;;
47429;SDS011;33181;49.246;7.372;2023-05-27T11:36:25;12.90;;;6.27;;
47429;SDS011;33181;49.246;7.372;2023-05-27T11:38:57;16.70;;;6.53;;
47429;SDS011;33181;49.246;7.372;2023-05-27T11:41:26;14.57;;;7.07;;
47429;SDS011;33181;49.246;7.372;2023-05-27T11:46:35;11.20;;;6.70;;
47429;SDS011;33181;49.246;7.372;2023-05-27T11:49:05;13.30;;;7.27;;
47429;SDS011;33181;49.246;7.372;2023-05-27T11:51:33;13.73;;;6.80;;
47429;SDS011;33181;49.246;7.372;2023-05-27T11:54:01;18.10;;;7.50;;
47429;SDS011;33181;49.246;7.372;2023-05-27T11:56:28;11.73;;;7.47;;
47429;SDS011;33181;49.246;7.372;2023-05-27T11:58:55;9.90;;;6.73;;
47429;SDS011;33181;49.246;7.372;2023-05-27T12:01:22;11.57;;;7.77;;
47429;SDS011;33181;49.246;7.372;2023-05-27T12:03:49;11.87;;;7.53;;
47429;SDS011;33181;49.246;7.372;2023-05-27T12:06:14;10.63;;;7.40;;
47429;SDS011;33181;49.246;7.372;2023-05-27T12:08:42;12.80;;;8.10;;
47429;SDS011;33181;49.246;7.372;2023-05-27T12:11:08;11.80;;;8.00;;
47429;SDS011;33181;49.246;7.372;2023-05-27T12:13:34;10.80;;;7.70;;
47429;SDS011;33181;49.246;7.372;2023-05-27T12:16:00;9.40;;;7.23;;
47429;SDS011;33181;49.246;7.372;2023-05-27T12:18:28;15.03;;;7.90;;
47429;SDS011;33181;49.246;7.372;2023-05-27T12:20:56;9.83;;;7.67;;
47429;SDS011;33181;49.246;7.372;2023-05-27T12:23:23;12.40;;;7.80;;
47429;SDS011;33181;49.246;7.372;2023-05-27T12:25:57;12.10;;;7.87;;
47429;SDS011;33181;49.246;7.372;2023-05-27T12:28:23;10.60;;;7.70;;
47429;SDS011;33181;49.246;7.372;2023-05-27T12:30:49;9.85;;;7.50;;
47429;SDS011;33181;49.246;7.372;2023-05-27T12:33:15;9.80;;;7.47;;
47429;SDS011;33181;49.246;7.372;2023-05-27T12:35:42;9.37;;;7.40;;
47429;SDS011;33181;49.246;7.372;2023-05-27T12:38:08;13.10;;;7.87;;
47429;SDS011;33181;49.246;7.372;2023-05-27T12:40:34;10.97;;;7.53;;
47429;SDS011;33181;49.246;7.372;2023-05-27T12:43:00;9.27;;;7.00;;
47429;SDS011;33181;49.246;7.372;2023-05-27T12:45:29;10.53;;;8.30;;
47429;SDS011;33181;49.246;7.372;2023-05-27T12:47:55;12.23;;;7.80;;
47429;SDS011;33181;49.246;7.372;2023-05-27T12:50:22;11.07;;;7.60;;
47429;SDS011;33181;49.246;7.372;2023-05-27T12:52:48;14.50;;;7.90;;
47429;SDS011;33181;49.246;7.372;2023-05-27T12:55:16;13.77;;;7.73;;
47429;SDS011;33181;49.246;7.372;2023-05-27T12:57:48;12.90;;;7.50;;
47429;SDS011;33181;49.246;7.372;2023-05-27T13:00:20;11.67;;;7.40;;
47429;SDS011;33181;49.246;7.372;2023-05-27T13:02:47;10.60;;;7.60;;
47429;SDS011;33181;49.246;7.372;2023-05-27T13:05:13;10.97;;;7.50;;
47429;SDS011;33181;49.246;7.372;2023-05-27T13:07:41;10.50;;;7.30;;
47429;SDS011;33181;49.246;7.372;2023-05-27T13:10:24;11.30;;;7.30;;
47429;SDS011;33181;49.246;7.372;2023-05-27T13:12:53;12.40;;;7.50;;
47429;SDS011;33181;49.246;7.372;2023-05-27T13:15:21;10.60;;;7.83;;
47429;SDS011;33181;49.246;7.372;2023-05-27T13:17:49;15.73;;;7.53;;
47429;SDS011;33181;49.246;7.372;2023-05-27T13:20:16;9.70;;;7.57;;
47429;SDS011;33181;49.246;7.372;2023-05-27T13:22:44;14.27;;;7.90;;
47429;SDS011;33181;49.246;7.372;2023-05-27T13:25:13;10.27;;;7.27;;
47429;SDS011;33181;49.246;7.372;2023-05-27T13:27:40;12.70;;;8.03;;
47429;SDS011;33181;49.246;7.372;2023-05-27T13:30:11;11.13;;;7.63;;
47429;SDS011;33181;49.246;7.372;2023-05-27T13:32:39;11.27;;;7.13;;
47429;SDS011;33181;49.246;7.372;2023-05-27T13:35:06;12.77;;;7.47;;
47429;SDS011;33181;49.246;7.372;2023-05-27T13:37:32;13.83;;;7.50;;
47429;SDS011;33181;49.246;7.372;2023-05-27T13:39:58;11.70;;;7.57;;
47429;SDS011;33181;49.246;7.372;2023-05-27T13:42:24;11.33;;;7.80;;
47429;SDS011;33181;49.246;7.372;2023-05-27T13:44:50;10.77;;;7.53;;
47429;SDS011;33181;49.246;7.372;2023-05-27T13:47:16;13.57;;;7.83;;
47429;SDS011;33181;49.246;7.372;2023-05-27T13:49:43;11.47;;;8.10;;
47429;SDS011;33181;49.246;7.372;2023-05-27T13:52:10;12.30;;;8.30;;
47429;SDS011;33181;49.246;7.372;2023-05-27T13:54:36;12.70;;;7.57;;
47429;SDS011;33181;49.246;7.372;2023-05-27T13:57:03;10.27;;;7.37;;
47429;SDS011;33181;49.246;7.372;2023-05-27T13:59:29;12.50;;;7.93;;
47429;SDS011;33181;49.246;7.372;2023-05-27T14:01:55;13.20;;;7.60;;
47429;SDS011;33181;49.246;7.372;2023-05-27T14:04:22;16.20;;;7.67;;
47429;SDS011;33181;49.246;7.372;2023-05-27T14:06:48;13.50;;;7.30;;
47429;SDS011;33181;49.246;7.372;2023-05-27T14:09:14;12.00;;;7.50;;
47429;SDS011;33181;49.246;7.372;2023-05-27T14:11:40;12.00;;;8.10;;
47429;SDS011;33181;49.246;7.372;2023-05-27T14:14:06;11.93;;;7.60;;
47429;SDS011;33181;49.246;7.372;2023-05-27T14:16:31;8.20;;;6.90;;
47429;SDS011;33181;49.246;7.372;2023-05-27T14:18:58;11.40;;;7.57;;
47429;SDS011;33181;49.246;7.372;2023-05-27T14:21:23;10.90;;;7.70;;
47429;SDS011;33181;49.246;7.372;2023-05-27T14:23:49;10.43;;;7.57;;
47429;SDS011;33181;49.246;7.372;2023-05-27T14:26:15;13.23;;;7.70;;
47429;SDS011;33181;49.246;7.372;2023-05-27T14:28:42;16.10;;;7.77;;
47429;SDS011;33181;49.246;7.372;2023-05-27T14:31:08;12.30;;;8.00;;
47429;SDS011;33181;49.246;7.372;2023-05-27T14:33:34;12.60;;;7.97;;
47429;SDS011;33181;49.246;7.372;2023-05-27T14:35:59;11.23;;;7.53;;
47429;SDS011;33181;49.246;7.372;2023-05-27T14:38:25;13.80;;;8.30;;
47429;SDS011;33181;49.246;7.372;2023-05-27T14:40:51;12.77;;;8.10;;
47429;SDS011;33181;49.246;7.372;2023-05-27T14:43:17;12.40;;;8.13;;
47429;SDS011;33181;49.246;7.372;2023-05-27T14:45:44;12.67;;;7.60;;
47429;SDS011;33181;49.246;7.372;2023-05-27T14:48:10;18.60;;;8.43;;
47429;SDS011;33181;49.246;7.372;2023-05-27T14:50:36;10.03;;;7.10;;
47429;SDS011;33181;49.246;7.372;2023-05-27T14:53:02;14.00;;;8.30;;
47429;SDS011;33181;49.246;7.372;2023-05-27T14:55:28;12.90;;;7.83;;
47429;SDS011;33181;49.246;7.372;2023-05-27T14:57:54;12.03;;;8.33;;
47429;SDS011;33181;49.246;7.372;2023-05-27T15:00:21;14.67;;;7.90;;
47429;SDS011;33181;49.246;7.372;2023-05-27T15:02:49;14.03;;;7.87;;